createdAt,value
2022-12-25T00:02:37.610Z,6.90
2022-12-25T00:05:41.067Z,6.97
2022-12-25T00:08:44.511Z,6.97
2022-12-25T00:11:48.384Z,7.10
2022-12-25T00:14:51.504Z,7.19
2022-12-25T00:17:55.506Z,7.23
2022-12-25T00:21:04.830Z,7.25
2022-12-25T00:24:08.095Z,7.16
2022-12-25T00:27:11.928Z,6.99
2022-12-25T00:30:15.345Z,6.90
2022-12-25T00:33:18.391Z,6.89
2022-12-25T00:36:23.077Z,6.88
2022-12-25T00:39:26.018Z,6.85
2022-12-25T00:42:29.352Z,6.82
2022-12-25T00:45:32.350Z,6.79
2022-12-25T00:48:35.858Z,6.78
2022-12-25T00:51:38.909Z,6.81
2022-12-25T00:54:42.330Z,6.81
2022-12-25T00:57:45.191Z,6.79
2022-12-25T01:00:49.185Z,6.90
2022-12-25T01:03:53.189Z,6.90
2022-12-25T01:06:56.406Z,6.82
2022-12-25T01:10:18.727Z,6.81
2022-12-25T01:13:22.061Z,6.76
2022-12-25T01:16:25.559Z,6.77
2022-12-25T01:19:28.915Z,6.73
2022-12-25T01:22:31.830Z,6.63
2022-12-25T01:25:35.122Z,6.58
2022-12-25T01:28:38.974Z,6.54
2022-12-25T01:31:43.446Z,6.53
2022-12-25T01:34:49.319Z,6.62
2022-12-25T01:37:57.117Z,6.68
2022-12-25T01:41:00.610Z,6.77
2022-12-25T01:44:36.877Z,6.76
2022-12-25T01:47:39.949Z,6.84
2022-12-25T01:50:48.102Z,6.89
2022-12-25T01:53:51.144Z,6.91
2022-12-25T01:56:59.426Z,6.91
2022-12-25T02:00:02.817Z,6.90
2022-12-25T02:03:07.571Z,6.93
2022-12-25T02:06:12.218Z,6.95
2022-12-25T02:09:15.725Z,6.92
2022-12-25T02:12:22.735Z,6.92
2022-12-25T02:15:33.223Z,6.94
2022-12-25T02:18:43.908Z,7.01
2022-12-25T02:21:59.020Z,7.03
2022-12-25T02:25:17.564Z,6.94
2022-12-25T02:28:29.518Z,6.89
2022-12-25T02:31:39.202Z,6.87
2022-12-25T02:35:05.940Z,6.86
2022-12-25T02:38:20.753Z,6.96
2022-12-25T02:41:23.703Z,6.93
2022-12-25T02:44:46.556Z,6.91
2022-12-25T02:48:08.275Z,6.90
2022-12-25T02:51:32.093Z,6.94
2022-12-25T02:54:57.267Z,6.93
2022-12-25T02:58:23.004Z,6.86
2022-12-25T03:01:47.719Z,6.81
2022-12-25T03:05:10.143Z,6.53
2022-12-25T03:08:20.634Z,6.39
2022-12-25T03:11:32.814Z,6.32
2022-12-25T03:14:54.268Z,6.29
2022-12-25T03:17:59.726Z,6.20
2022-12-25T03:21:21.338Z,6.18
2022-12-25T03:24:42.921Z,6.30
2022-12-25T03:27:46.866Z,6.26
2022-12-25T03:31:12.252Z,6.22
2022-12-25T03:34:40.789Z,6.36
2022-12-25T03:38:27.078Z,6.40
2022-12-25T03:42:19.052Z,6.48
2022-12-25T03:45:47.264Z,6.67
2022-12-25T03:49:11.778Z,6.61
2022-12-25T03:52:34.869Z,6.48
2022-12-25T03:55:57.239Z,6.51
2022-12-25T03:59:23.515Z,6.52
2022-12-25T04:02:45.439Z,6.51
2022-12-25T04:06:08.548Z,6.36
2022-12-25T04:09:30.405Z,6.32
2022-12-25T04:12:52.106Z,6.16
2022-12-25T04:16:14.081Z,6.00
2022-12-25T04:19:36.817Z,5.85
2022-12-25T04:22:58.313Z,5.85
2022-12-25T04:26:20.625Z,5.77
2022-12-25T04:29:42.326Z,5.69
2022-12-25T04:33:04.227Z,5.68
2022-12-25T04:36:11.265Z,5.66
2022-12-25T04:39:14.476Z,5.66
2022-12-25T04:42:17.726Z,5.51
2022-12-25T04:45:20.985Z,5.39
2022-12-25T04:48:24.447Z,5.39
2022-12-25T04:51:27.694Z,5.49
2022-12-25T04:54:30.893Z,5.60
2022-12-25T04:57:34.173Z,5.82
2022-12-25T05:00:37.569Z,6.04
2022-12-25T05:03:41.324Z,6.09
2022-12-25T05:06:45.196Z,6.17
2022-12-25T05:09:48.485Z,6.15
2022-12-25T05:12:51.832Z,6.06
2022-12-25T05:15:55.113Z,5.92
2022-12-25T05:18:58.132Z,5.83
2022-12-25T05:22:01.368Z,5.78
2022-12-25T05:25:04.585Z,5.75
2022-12-25T05:28:08.176Z,5.72
2022-12-25T05:31:11.592Z,5.76
2022-12-25T05:34:14.883Z,5.85
2022-12-25T05:37:17.798Z,5.97
2022-12-25T05:40:21.084Z,5.85
2022-12-25T05:43:24.278Z,5.66
2022-12-25T05:46:27.884Z,5.63
2022-12-25T05:49:30.897Z,5.66
2022-12-25T05:52:34.780Z,5.74
2022-12-25T05:55:38.834Z,5.82
2022-12-25T05:58:42.065Z,5.83
2022-12-25T06:01:45.116Z,5.96
2022-12-25T06:04:48.573Z,5.99
2022-12-25T06:07:51.758Z,6.02
2022-12-25T06:10:55.382Z,5.98
2022-12-25T06:13:58.309Z,5.93
2022-12-25T06:17:01.849Z,5.86
2022-12-25T06:20:06.513Z,5.80
2022-12-25T06:23:09.899Z,5.69
2022-12-25T06:26:16.847Z,5.62
2022-12-25T06:29:20.148Z,5.55
2022-12-25T06:32:23.302Z,5.78
2022-12-25T06:35:27.140Z,5.83
2022-12-25T06:38:30.066Z,5.89
2022-12-25T06:41:33.716Z,5.88
2022-12-25T06:44:36.589Z,5.85
2022-12-25T06:47:39.904Z,5.73
2022-12-25T06:50:44.335Z,5.57
2022-12-25T06:53:48.920Z,5.48
2022-12-25T06:56:51.803Z,5.36
2022-12-25T06:59:55.669Z,5.33
2022-12-25T07:02:58.450Z,5.31
2022-12-25T07:06:01.554Z,5.36
2022-12-25T07:09:04.406Z,5.47
2022-12-25T07:12:13.619Z,5.51
2022-12-25T07:15:16.712Z,5.56
2022-12-25T07:18:19.919Z,5.63
2022-12-25T07:21:22.793Z,5.78
2022-12-25T07:24:25.954Z,5.99
2022-12-25T07:27:28.982Z,6.20
2022-12-25T07:30:32.761Z,6.45
2022-12-25T07:33:36.335Z,6.50
2022-12-25T07:36:39.701Z,6.42
2022-12-25T07:39:42.634Z,6.37
2022-12-25T07:42:45.821Z,6.44
2022-12-25T07:45:48.728Z,6.57
2022-12-25T07:48:52.055Z,6.70
2022-12-25T07:51:55.299Z,6.61
2022-12-25T07:54:58.511Z,6.00
2022-12-25T07:58:01.515Z,5.94
2022-12-25T08:01:07.530Z,5.96
2022-12-25T08:04:11.870Z,5.74
2022-12-25T08:07:14.880Z,6.00
2022-12-25T08:10:19.304Z,6.14
2022-12-25T08:13:22.353Z,6.36
2022-12-25T08:16:26.171Z,6.50
2022-12-25T08:19:29.388Z,6.67
2022-12-25T08:22:32.653Z,6.65
2022-12-25T08:25:35.626Z,6.89
2022-12-25T08:28:39.104Z,7.18
2022-12-25T08:31:46.491Z,7.44
2022-12-25T08:34:50.143Z,7.60
2022-12-25T08:37:53.035Z,7.78
2022-12-25T08:40:56.211Z,7.88
2022-12-25T08:43:59.266Z,7.86
2022-12-25T08:47:02.476Z,7.99
2022-12-25T08:50:06.224Z,8.16
2022-12-25T08:53:09.735Z,7.96
2022-12-25T08:56:13.398Z,8.12
2022-12-25T08:59:18.060Z,8.22
2022-12-25T09:02:21.113Z,8.14
2022-12-25T09:05:25.628Z,7.82
2022-12-25T09:08:28.704Z,8.07
2022-12-25T09:11:31.926Z,8.02
2022-12-25T09:14:34.843Z,8.09
2022-12-25T09:17:38.373Z,8.19
2022-12-25T09:20:41.371Z,8.28
2022-12-25T09:23:44.764Z,8.28
2022-12-25T09:26:47.698Z,8.36
2022-12-25T09:29:51.068Z,8.28
2022-12-25T09:32:54.053Z,8.45
2022-12-25T09:36:02.966Z,8.53
2022-12-25T09:39:05.923Z,8.62
2022-12-25T09:42:21.266Z,8.71
2022-12-25T09:45:32.786Z,8.79
2022-12-25T09:48:38.149Z,8.87
2022-12-25T09:51:44.602Z,8.94
2022-12-25T09:55:07.209Z,9.08
2022-12-25T09:58:13.667Z,9.21
2022-12-25T10:01:33.344Z,9.23
2022-12-25T10:04:51.965Z,9.59
2022-12-25T10:08:13.177Z,9.60
2022-12-25T10:11:38.864Z,9.55
2022-12-25T10:14:47.462Z,9.82
2022-12-25T10:18:32.088Z,9.87
2022-12-25T10:21:35.260Z,10.09
2022-12-25T10:24:49.082Z,10.15
2022-12-25T10:27:55.899Z,10.13
2022-12-25T10:31:21.376Z,10.46
2022-12-25T10:34:24.687Z,10.41
2022-12-25T10:37:27.922Z,10.54
2022-12-25T10:41:01.224Z,10.62
2022-12-25T10:44:21.239Z,10.63
2022-12-25T10:47:26.388Z,10.76
2022-12-25T10:50:30.599Z,11.02
2022-12-25T10:53:39.659Z,10.96
2022-12-25T10:57:02.086Z,11.04
2022-12-25T11:00:08.109Z,11.11
2022-12-25T11:03:22.790Z,11.03
2022-12-25T11:06:28.738Z,11.02
2022-12-25T11:09:32.533Z,11.15
2022-12-25T11:12:37.172Z,11.44
2022-12-25T11:15:46.105Z,11.48
2022-12-25T11:18:51.618Z,11.74
2022-12-25T11:21:57.403Z,12.10
2022-12-25T11:25:13.587Z,12.48
2022-12-25T11:28:17.005Z,12.75
2022-12-25T11:31:24.727Z,13.07
2022-12-25T11:34:38.600Z,13.07
2022-12-25T11:37:52.498Z,13.53
2022-12-25T11:40:59.217Z,14.40
2022-12-25T11:44:05.263Z,15.52
2022-12-25T11:47:38.274Z,15.95
2022-12-25T11:50:52.231Z,16.97
2022-12-25T11:53:59.987Z,15.98
2022-12-25T11:57:04.761Z,17.36
2022-12-25T12:00:10.412Z,18.45
2022-12-25T12:03:18.560Z,18.56
2022-12-25T12:06:57.039Z,18.26
2022-12-25T12:10:10.153Z,18.45
2022-12-25T12:13:21.345Z,19.05
2022-12-25T12:16:24.766Z,19.14
2022-12-25T12:19:30.695Z,19.56
2022-12-25T12:22:34.075Z,19.13
2022-12-25T12:25:41.930Z,20.42
2022-12-25T12:28:46.440Z,20.75
2022-12-25T12:31:50.455Z,20.05
2022-12-25T12:34:53.837Z,20.13
2022-12-25T12:38:00.236Z,20.51
2022-12-25T12:41:07.196Z,20.80
2022-12-25T12:44:11.287Z,19.18
2022-12-25T12:47:28.527Z,17.68
2022-12-25T12:50:34.279Z,17.20
2022-12-25T12:53:42.224Z,16.43
2022-12-25T12:56:55.513Z,15.75
2022-12-25T13:00:04.793Z,14.92
2022-12-25T13:03:27.621Z,15.07
2022-12-25T13:06:34.585Z,16.05
2022-12-25T13:09:49.959Z,17.27
2022-12-25T13:13:05.790Z,18.81
2022-12-25T13:16:36.826Z,19.06
2022-12-25T13:19:42.748Z,20.24
2022-12-25T13:22:52.361Z,19.91
2022-12-25T13:26:04.414Z,19.55
2022-12-25T13:29:11.493Z,19.33
2022-12-25T13:32:25.035Z,18.32
2022-12-25T13:35:28.186Z,17.30
2022-12-25T13:38:31.497Z,17.30
2022-12-25T13:42:12.470Z,17.84
2022-12-25T13:45:25.064Z,18.66
2022-12-25T13:48:28.005Z,19.92
2022-12-25T13:51:31.194Z,19.96
2022-12-25T13:54:34.176Z,19.24
2022-12-25T13:57:40.544Z,19.06
2022-12-25T14:00:53.144Z,18.85
2022-12-25T14:03:56.741Z,18.82
2022-12-25T14:07:09.310Z,18.16
2022-12-25T14:10:14.195Z,18.72
2022-12-25T14:13:17.058Z,17.78
2022-12-25T14:16:21.762Z,18.45
2022-12-25T14:19:33.442Z,16.79
2022-12-25T14:22:38.688Z,15.47
2022-12-25T14:25:44.855Z,14.69
2022-12-25T14:28:49.820Z,13.63
2022-12-25T14:31:56.153Z,13.44
2022-12-25T14:35:03.575Z,12.76
2022-12-25T14:38:06.566Z,12.47
2022-12-25T14:41:37.096Z,12.19
2022-12-25T14:44:41.224Z,12.04
2022-12-25T14:47:53.169Z,11.85
2022-12-25T14:51:03.142Z,11.65
2022-12-25T14:54:15.639Z,11.77
2022-12-25T14:57:34.077Z,11.58
2022-12-25T15:00:38.706Z,11.51
2022-12-25T15:03:43.816Z,11.48
2022-12-25T15:06:56.736Z,11.44
2022-12-25T15:10:36.496Z,11.61
2022-12-25T15:13:23.312Z,11.51
2022-12-25T15:16:47.868Z,11.44
2022-12-25T15:19:51.143Z,11.42
2022-12-25T15:23:18.587Z,11.46
2022-12-25T15:26:17.792Z,11.44
2022-12-25T15:29:38.143Z,11.38
2022-12-25T15:32:43.990Z,11.42
2022-12-25T15:35:47.085Z,11.27
2022-12-25T15:38:51.061Z,11.36
2022-12-25T15:42:13.030Z,11.22
2022-12-25T15:45:21.091Z,11.23
2022-12-25T15:48:24.000Z,11.20
2022-12-25T15:51:27.625Z,11.16
2022-12-25T15:54:31.572Z,11.12
2022-12-25T15:57:35.325Z,11.00
2022-12-25T16:00:38.236Z,11.11
2022-12-25T16:03:42.647Z,10.97
2022-12-25T16:06:45.712Z,10.98
2022-12-25T16:09:49.195Z,10.92
2022-12-25T16:12:52.112Z,10.86
2022-12-25T16:15:55.405Z,10.82
2022-12-25T16:18:59.506Z,10.84
2022-12-25T16:22:02.780Z,10.81
2022-12-25T16:25:11.785Z,10.81
2022-12-25T16:28:16.434Z,10.81
2022-12-25T16:31:19.498Z,10.77
2022-12-25T16:34:23.905Z,10.73
2022-12-25T16:37:27.769Z,10.76
2022-12-25T16:40:34.627Z,10.77
2022-12-25T16:43:37.532Z,10.63
2022-12-25T16:46:40.928Z,10.72
2022-12-25T16:49:44.274Z,10.64
2022-12-25T16:52:47.231Z,10.62
2022-12-25T16:55:50.181Z,10.58
2022-12-25T16:58:53.461Z,10.59
2022-12-25T17:01:56.565Z,10.66
2022-12-25T17:05:00.602Z,10.65
2022-12-25T17:08:03.583Z,10.71
2022-12-25T17:11:06.843Z,10.63
2022-12-25T17:14:10.388Z,10.70
2022-12-25T17:17:13.722Z,10.56
2022-12-25T17:20:19.491Z,10.66
2022-12-25T17:23:23.082Z,10.53
2022-12-25T17:26:26.104Z,10.48
2022-12-25T17:29:29.800Z,10.55
2022-12-25T17:32:34.626Z,10.51
2022-12-25T17:35:37.855Z,10.48
2022-12-25T17:38:41.155Z,10.49
2022-12-25T17:41:44.490Z,10.44
2022-12-25T17:44:47.431Z,10.51
2022-12-25T17:47:55.047Z,10.45
2022-12-25T17:51:05.997Z,10.43
2022-12-25T17:54:09.624Z,10.39
2022-12-25T17:57:12.670Z,10.30
2022-12-25T18:00:16.449Z,10.25
2022-12-25T18:03:20.723Z,10.24
2022-12-25T18:06:25.042Z,10.25
2022-12-25T18:09:28.343Z,10.07
2022-12-25T18:12:31.405Z,9.96
2022-12-25T18:15:39.953Z,10.04
2022-12-25T18:18:51.399Z,10.01
2022-12-25T18:22:09.293Z,9.98
2022-12-25T18:25:13.071Z,9.92
2022-12-25T18:28:16.808Z,9.91
2022-12-25T18:31:24.478Z,9.93
2022-12-25T18:34:27.598Z,10.01
2022-12-25T18:37:34.472Z,9.97
2022-12-25T18:40:44.433Z,9.88
2022-12-25T18:43:53.500Z,9.92
2022-12-25T18:46:58.172Z,9.97
2022-12-25T18:50:01.554Z,9.90
2022-12-25T18:53:08.081Z,9.88
2022-12-25T18:56:15.237Z,9.92
2022-12-25T18:59:19.203Z,9.86
2022-12-25T19:02:22.969Z,9.88
2022-12-25T19:05:26.367Z,9.93
2022-12-25T19:08:32.575Z,10.03
2022-12-25T19:11:46.464Z,10.02
2022-12-25T19:14:50.223Z,10.06
2022-12-25T19:17:53.830Z,10.08
2022-12-25T19:20:57.182Z,10.09
2022-12-25T19:24:00.117Z,10.14
2022-12-25T19:27:04.144Z,10.13
2022-12-25T19:30:08.547Z,10.06
2022-12-25T19:33:17.444Z,10.09
2022-12-25T19:36:21.598Z,10.04
2022-12-25T19:39:25.032Z,10.13
2022-12-25T19:42:28.271Z,10.10
2022-12-25T19:45:32.211Z,10.14
2022-12-25T19:48:36.498Z,9.98
2022-12-25T19:51:43.659Z,10.02
2022-12-25T19:54:52.847Z,9.87
2022-12-25T19:57:59.435Z,9.88
2022-12-25T20:01:09.103Z,9.88
2022-12-25T20:04:12.874Z,9.90
2022-12-25T20:07:15.910Z,10.02
2022-12-25T20:10:19.487Z,9.98
2022-12-25T20:13:23.378Z,10.10
2022-12-25T20:16:27.888Z,10.11
2022-12-25T20:19:32.543Z,10.16
2022-12-25T20:22:36.190Z,10.21
2022-12-25T20:25:41.853Z,10.22
2022-12-25T20:28:49.067Z,10.24
2022-12-25T20:31:53.365Z,10.28
2022-12-25T20:34:56.826Z,10.27
2022-12-25T20:38:00.442Z,10.34
2022-12-25T20:41:29.391Z,10.25
2022-12-25T20:44:33.040Z,10.42
2022-12-25T20:47:38.242Z,10.46
2022-12-25T20:50:41.421Z,10.42
2022-12-25T20:53:45.520Z,10.44
2022-12-25T20:56:49.149Z,10.46
2022-12-25T20:59:52.376Z,10.48
2022-12-25T21:02:56.138Z,10.42
2022-12-25T21:05:59.856Z,10.41
2022-12-25T21:09:03.273Z,10.58
2022-12-25T21:12:07.660Z,10.46
2022-12-25T21:15:15.653Z,10.45
2022-12-25T21:18:21.431Z,10.50
2022-12-25T21:21:24.264Z,10.52
2022-12-25T21:24:28.731Z,10.52
2022-12-25T21:27:31.726Z,10.45
2022-12-25T21:30:37.061Z,10.47
2022-12-25T21:33:53.804Z,10.45
2022-12-25T21:36:57.123Z,10.43
2022-12-25T21:40:00.433Z,10.43
2022-12-25T21:43:03.793Z,10.31
2022-12-25T21:46:08.633Z,10.34
2022-12-25T21:49:11.779Z,10.42
2022-12-25T21:52:15.384Z,10.39
2022-12-25T21:55:18.588Z,10.30
2022-12-25T21:58:22.637Z,10.12
2022-12-25T22:01:26.958Z,10.05
2022-12-25T22:04:30.243Z,10.10
2022-12-25T22:07:33.434Z,10.06
2022-12-25T22:10:37.302Z,9.94
2022-12-25T22:13:58.851Z,9.96
2022-12-25T22:17:20.966Z,9.90
2022-12-25T22:20:30.729Z,9.93
2022-12-25T22:23:34.033Z,9.92
2022-12-25T22:26:36.972Z,9.90
2022-12-25T22:29:40.770Z,9.85
2022-12-25T22:32:44.080Z,9.83
2022-12-25T22:35:47.522Z,9.84
2022-12-25T22:38:50.492Z,9.79
2022-12-25T22:41:55.912Z,9.84
2022-12-25T22:44:58.940Z,9.83
2022-12-25T22:48:02.188Z,9.84
2022-12-25T22:51:06.579Z,9.87
2022-12-25T22:54:09.859Z,9.87
2022-12-25T22:57:13.630Z,9.74
2022-12-25T23:00:17.033Z,9.79
2022-12-25T23:03:20.079Z,9.82
2022-12-25T23:06:23.469Z,9.78
2022-12-25T23:09:29.611Z,9.76
2022-12-25T23:12:51.415Z,9.83
2022-12-25T23:15:54.386Z,9.80
2022-12-25T23:19:16.489Z,9.73
2022-12-25T23:22:38.412Z,9.75
2022-12-25T23:26:00.300Z,9.77
2022-12-25T23:29:21.899Z,9.77
2022-12-25T23:32:28.035Z,9.71
2022-12-25T23:35:30.923Z,9.79
2022-12-25T23:38:34.173Z,9.66
2022-12-25T23:41:38.569Z,9.65
2022-12-25T23:44:42.082Z,9.66
2022-12-25T23:47:45.721Z,9.68
2022-12-25T23:50:48.905Z,9.65
2022-12-25T23:53:51.860Z,9.70
2022-12-25T23:56:57.384Z,9.66
